Latest Weather Observations for Portland Airport

IDV60801

Issued at 11:32 pm EST Wednesday 24 August 2016 (issued every 30 minutes, with the page automatically refreshed every 10 minutes)

About weather observations | Map of weather stations | Latest weather observations for VIC | Other Formats
Station Details ID: 090171 Name: CASHMORE AIRPORT Lat: -38.31 Lon: 141.47 Height: 80.9 m
Data from the previous 72 hours. | See also: Recent months at Portland Airport
Date/Time
EST
Temp
°C
App
Temp
°C
Dew
Point
°C
Rel
Hum
%
Delta-T
°C
Wind Press
QNH
hPa
Press
MSL
hPa
Rain since
9am
mm
Dir  Spd
km/h
Gust
km/h
Spd
kts
Gust
kts
24/11:30pm 8.3 4.1 5.8 84 1.1 SW 17 28 9 15 1016.0 1016.1 0.8
24/11:00pm 8.0 4.4 5.1 82 1.3 WSW 13 17 7 9 1016.0 1016.1 0.6
24/10:30pm 8.8 5.6 5.2 78 1.6 WSW 11 17 6 9 1016.1 1016.2 0.4
24/10:00pm 8.7 5.5 4.9 77 1.7 SW 11 15 6 8 1016.3 1016.4 0.4
24/09:30pm 8.4 5.6 5.3 81 1.4 WSW 9 13 5 7 1016.5 1016.6 0.4
24/09:00pm 7.6 4.9 5.4 86 1.0 SW 9 15 5 8 1016.6 1016.7 0.4
24/08:30pm 7.2 4.9 4.9 85 1.0 SW 6 7 3 4 1016.5 1016.6 0.4
24/08:00pm 7.6 5.1 4.7 82 1.3 SW 7 9 4 5 1016.6 1016.7 0.4
24/07:30pm 8.6 4.5 4.4 75 1.9 SSW 15 22 8 12 1016.8 1016.9 0.2
24/07:00pm 8.5 5.5 4.1 74 1.9 SSW 9 13 5 7 1016.5 1016.6 0.2
24/06:30pm 8.3 5.6 3.8 73 2.0 SSW 7 11 4 6 1016.4 1016.5 0.2
24/06:00pm 8.9 5.9 4.1 72 2.1 SSW 9 13 5 7 1016.2 1016.3 0.2
24/05:30pm 9.9 6.7 5.1 72 2.2 SSW 11 17 6 9 1016.1 1016.2 0.2
24/05:00pm 9.7 5.9 3.9 67 2.6 S 13 26 7 14 1016.0 1016.1 0.0
24/04:30pm 10.8 7.3 3.6 61 3.2 S 11 17 6 9 1015.8 1015.9 0.0
24/04:00pm 11.0 7.5 3.3 59 3.4 S 11 50 6 27 1015.8 1015.9 0.0
24/03:30pm 11.0 7.3 2.6 56 3.6 SSW 11 19 6 10 1015.9 1016.0 0.0
24/03:00pm 10.8 6.8 2.6 57 3.5 SSW 13 20 7 11 1015.8 1015.9 0.0
24/02:30pm 10.9 7.0 3.5 60 3.3 SSW 13 19 7 10 1015.8 1015.9 0.0
24/02:00pm 10.5 6.2 3.1 60 3.2 S 15 20 8 11 1015.9 1016.0 0.0
24/01:30pm 10.5 6.2 3.3 61 3.2 SSW 15 26 8 14 1016.0 1016.1 0.0
24/01:00pm 11.4 7.3 4.6 63 3.1 S 15 24 8 13 1016.3 1016.4 0.0
24/12:30pm 11.5 7.5 4.9 64 3.0 SSE 15 22 8 12 1016.4 1016.5 0.0
24/12:00pm 10.5 6.6 3.5 62 3.1 S 13 22 7 12 1016.7 1016.8 0.0
24/11:30am 10.3 7.0 4.7 68 2.5 SSE 11 19 6 10 1017.1 1017.2 0.0
24/11:00am 10.4 7.0 4.1 65 2.8 S 11 17 6 9 1017.1 1017.2 0.0
24/10:30am 10.2 6.7 3.7 64 2.9 SSE 11 19 6 10 1017.2 1017.3 0.0
24/10:00am 10.0 7.1 4.8 70 2.3 SSE 9 15 5 8 1017.5 1017.6 0.0
24/09:30am 10.3 8.7 6.3 76 1.9 ESE 4 7 2 4 1017.6 1017.7 0.0
24/09:00am 8.3 7.3 5.8 84 1.1 CALM 0 0 0 0 1017.9 1018.0 0.0
24/08:30am 7.9 5.2 5.5 85 1.1 ESE 9 13 5 7 1017.8 1017.9 0.0
24/08:00am 5.8 4.5 4.1 89 0.7 CALM 0 0 0 0 1017.5 1017.6 0.0
24/07:30am 5.0 3.5 3.2 88 0.7 CALM 0 0 0 0 1017.4 1017.5 0.0
24/07:00am 4.4 2.8 2.6 88 0.7 CALM 0 0 0 0 1017.3 1017.4 0.0
24/06:30am 4.2 2.6 2.2 87 0.8 CALM 0 0 0 0 1017.1 1017.2 0.0
24/06:00am 4.6 3.0 2.6 87 0.8 CALM 0 0 0 0 1017.1 1017.2 0.0
24/05:30am 4.8 2.9 2.7 86 0.9 NNE 2 6 1 3 1017.0 1017.1 0.0
24/05:00am 4.7 3.1 2.7 87 0.8 CALM 0 6 0 3 1017.0 1017.1 0.0
24/04:30am 4.7 3.1 2.7 87 0.8 CALM 0 0 0 0 1017.0 1017.1 0.0
24/04:00am 4.4 2.0 2.4 87 0.8 NNE 4 7 2 4 1017.0 1017.1 0.0
24/03:30am 4.6 3.0 2.5 86 0.9 CALM 0 0 0 0 1017.1 1017.2 0.0
24/03:00am 4.4 2.7 2.1 85 0.9 CALM 0 0 0 0 1017.3 1017.4 0.0
24/02:30am 4.0 2.2 1.4 83 1.0 CALM 0 0 0 0 1017.4 1017.5 0.0
24/02:00am 4.4 1.8 1.1 79 1.3 SE 4 7 2 4 1017.6 1017.7 0.0
24/01:30am 5.4 3.6 1.3 75 1.6 CALM 0 0 0 0 1017.7 1017.8 0.0
24/01:00am 6.9 3.8 1.6 69 2.1 SE 7 11 4 6 1017.9 1018.0 0.0
24/12:30am 7.1 3.9 3.2 76 1.6 SE 9 13 5 7 1017.9 1018.0 0.0
24/12:00am 6.6 4.9 3.8 82 1.2 SE 2 6 1 3 1018.1 1018.2 0.0
 
Date/Time
EST
Temp
°C
App
Temp
°C
Dew
Point
°C
Rel
Hum
%
Delta-T
°C
Wind Press
QNH
hPa
Press
MSL
hPa
Rain since
9am
mm
Dir  Spd
km/h
Gust
km/h
Spd
kts
Gust
kts
23/11:30pm 6.0 4.6 3.5 84 1.1 CALM 0 0 0 0 1018.1 1018.2 0.0
23/11:00pm 6.0 4.6 3.5 84 1.1 CALM 0 0 0 0 1018.2 1018.3 0.0
23/10:30pm 6.2 4.8 3.5 83 1.1 CALM 0 0 0 0 1018.4 1018.5 0.0
23/10:00pm 6.7 5.4 3.9 82 1.2 CALM 0 6 0 3 1018.4 1018.5 0.0
23/09:30pm 6.0 4.6 3.3 83 1.1 CALM 0 0 0 0 1018.5 1018.6 0.0
23/09:00pm 6.2 4.4 3.5 83 1.1 S 2 6 1 3 1018.5 1018.6 0.0
23/08:30pm 6.0 3.8 3.5 84 1.1 S 4 7 2 4 1018.5 1018.6 0.0
23/08:00pm 6.0 4.6 3.8 86 0.9 CALM 0 0 0 0 1018.6 1018.7 0.0
23/07:30pm 6.0 4.6 3.5 84 1.1 CALM 0 0 0 0 1018.6 1018.7 0.0
23/07:00pm 6.1 4.6 2.9 80 1.3 CALM 0 0 0 0 1018.5 1018.6 0.0
23/06:30pm 7.2 5.6 2.7 73 1.9 CALM 0 0 0 0 1018.3 1018.4 0.0
23/06:00pm 8.7 6.0 2.9 67 2.5 SE 6 9 3 5 1018.1 1018.2 0.0
23/05:30pm 10.0 6.3 2.6 60 3.2 SE 11 13 6 7 1017.8 1017.9 0.0
23/05:00pm 10.6 7.0 3.2 60 3.2 SE 11 15 6 8 1017.7 1017.8 0.0
23/04:30pm 10.6 6.6 2.7 58 3.4 SE 13 17 7 9 1017.8 1017.9 0.0
23/04:00pm 11.1 7.6 3.6 60 3.3 SE 11 17 6 9 1017.7 1017.8 0.0
23/03:30pm 11.1 7.7 3.9 61 3.2 SE 11 17 6 9 1017.6 1017.7 0.0
23/03:00pm 11.5 8.5 4.0 60 3.4 SSE 9 19 5 10 1017.7 1017.8 0.0
23/02:30pm 11.4 7.9 3.7 59 3.4 S 11 15 6 8 1017.9 1018.0 0.0
23/02:00pm 11.3 7.8 3.3 58 3.5 S 11 17 6 9 1017.8 1017.9 0.0
23/01:30pm 11.5 8.2 2.5 54 3.9 SSE 9 13 5 7 1017.9 1018.0 0.0
23/01:00pm 11.5 8.3 3.0 56 3.7 S 9 13 5 7 1017.7 1017.8 0.0
23/12:30pm 11.4 7.6 3.7 59 3.4 SSE 13 19 7 10 1017.9 1018.0 0.0
23/12:00pm 11.5 8.5 4.0 60 3.4 S 9 15 5 8 1018.0 1018.1 0.0
23/11:30am 11.2 8.0 3.3 58 3.5 S 9 17 5 9 1018.1 1018.2 0.0
23/11:00am 10.9 8.1 3.2 59 3.4 SSE 7 11 4 6 1018.2 1018.3 0.0
23/10:30am 10.5 7.5 2.1 56 3.6 SSE 7 9 4 5 1018.5 1018.6 0.0
23/10:00am 10.3 8.0 2.7 59 3.3 S 4 9 2 5 1018.8 1018.9 0.0
23/09:30am 10.5 8.0 3.8 63 3.0 E 6 9 3 5 1018.8 1018.9 0.0
23/09:00am 8.5 6.6 6.6 88 0.9 ESE 6 9 3 5 1018.8 1018.9 0.0
23/08:30am 5.1 3.7 3.8 91 0.5 CALM 0 0 0 0 1018.7 1018.8 0.0
23/08:00am 3.8 2.2 2.5 91 0.5 CALM 0 0 0 0 1018.5 1018.6 0.0
23/07:30am 2.6 0.8 1.3 91 0.5 CALM 0 0 0 0 1018.1 1018.2 0.0
23/07:00am 3.2 1.5 1.9 91 0.5 CALM 0 0 0 0 1017.9 1018.0 0.0
23/06:30am 3.3 1.2 2.0 91 0.5 SSE 2 6 1 3 1017.6 1017.7 0.0
23/06:00am 3.5 1.1 2.2 91 0.5 S 4 6 2 3 1017.5 1017.6 0.0
23/05:30am 3.5 0.7 2.2 91 0.5 SSE 6 9 3 5 1017.3 1017.4 0.0
23/05:00am 1.9 0.0 0.6 91 0.5 CALM 0 0 0 0 1017.2 1017.3 0.0
23/04:30am 2.2 0.4 0.9 91 0.5 CALM 0 0 0 0 1017.1 1017.2 0.0
23/04:00am 2.6 0.8 1.3 91 0.5 CALM 0 0 0 0 1016.9 1017.0 0.0
23/03:30am 3.1 1.4 1.8 91 0.5 CALM 0 0 0 0 1017.0 1017.1 0.0
23/03:00am 2.6 0.8 1.3 91 0.5 CALM 0 0 0 0 1017.1 1017.2 0.0
23/02:30am 3.0 1.2 1.5 90 0.6 CALM 0 0 0 0 1017.2 1017.3 0.0
23/02:00am 3.6 1.9 2.1 90 0.6 CALM 0 0 0 0 1017.2 1017.3 0.0
23/01:30am 3.5 1.4 1.9 89 0.6 SSE 2 6 1 3 1017.4 1017.5 0.0
23/01:00am 3.8 2.2 2.2 89 0.6 CALM 0 0 0 0 1017.2 1017.3 0.0
23/12:30am 3.8 2.1 2.0 88 0.7 CALM 0 0 0 0 1017.3 1017.4 0.0
23/12:00am 4.3 1.9 2.2 86 0.8 SE 4 7 2 4 1017.2 1017.3 0.0
 
Date/Time
EST
Temp
°C
App
Temp
°C
Dew
Point
°C
Rel
Hum
%
Delta-T
°C
Wind Press
QNH
hPa
Press
MSL
hPa
Rain since
9am
mm
Dir  Spd
km/h
Gust
km/h
Spd
kts
Gust
kts
22/11:30pm 4.9 3.3 2.6 85 0.9 CALM 0 0 0 0 1017.2 1017.3 0.0
22/11:00pm 5.6 2.8 2.9 83 1.1 SE 7 9 4 5 1017.2 1017.3 0.0
22/10:30pm 6.0 3.2 3.2 82 1.2 SSE 7 9 4 5 1017.3 1017.4 0.0
22/10:00pm 7.0 4.3 3.8 80 1.4 SSE 7 9 4 5 1017.3 1017.4 0.0
22/09:30pm 7.1 4.1 3.9 80 1.4 SSE 9 11 5 6 1017.1 1017.2 0.0
22/09:00pm 7.4 4.5 4.4 81 1.3 SSE 9 13 5 7 1016.8 1016.9 0.0
22/08:30pm 7.6 4.7 4.7 82 1.3 SE 9 11 5 6 1016.5 1016.6 0.0
22/08:00pm 7.3 4.8 4.6 83 1.2 SSE 7 11 4 6 1016.4 1016.5 0.0
22/07:30pm 7.8 5.0 5.1 83 1.2 SSE 9 11 5 6 1016.0 1016.1 0.0
22/07:00pm 7.7 5.2 5.0 83 1.2 SSE 7 9 4 5 1015.6 1015.7 0.0
22/06:30pm 8.2 5.8 5.1 81 1.4 SSE 7 11 4 6 1015.1 1015.2 0.0
22/06:00pm 9.2 6.9 5.6 78 1.6 SSE 7 9 4 5 1014.8 1014.9 0.0
22/05:30pm 10.1 7.5 5.9 75 1.9 SE 9 13 5 7 1014.5 1014.6 0.0
22/05:00pm 10.9 7.5 6.1 72 2.2 SE 13 20 7 11 1014.3 1014.4 0.0
22/04:30pm 11.1 7.3 6.0 71 2.4 SE 15 22 8 12 1014.0 1014.1 0.0
22/04:00pm 11.1 7.0 6.3 72 2.3 SE 17 22 9 12 1013.9 1014.0 0.0
22/03:30pm 11.4 7.0 6.7 73 2.2 SE 19 28 10 15 1013.7 1013.8 0.0
22/03:00pm 12.3 8.8 8.6 78 1.8 SE 17 24 9 13 1013.5 1013.6 0.0
22/02:30pm 10.8 6.3 7.1 78 1.8 SE 20 26 11 14 1013.5 1013.6 0.0
22/02:00pm 12.1 8.9 8.4 78 1.8 SE 15 24 8 13 1013.5 1013.6 0.0
22/01:31pm 10.8 7.1 7.9 82 1.4 SE 17 22 9 12 1013.6 1013.7 0.0
22/01:30pm 10.7 7.3 7.8 82 1.4 SE 15 22 8 12 1013.6 1013.7 0.0
22/01:12pm 11.1 8.2 8.3 83 1.4 ESE 13 20 7 11 1013.7 1013.8 0.0
22/01:10pm 11.5 8.7 8.7 83 1.4 ESE 13 19 7 10 1013.6 1013.7 0.0
22/01:00pm 11.0 8.2 8.4 84 1.3 SE 13 19 7 10 1013.7 1013.8 0.0
22/12:56pm 10.7 7.8 8.1 84 1.3 SE 13 19 7 10 1013.8 1013.9 0.0
22/12:30pm 10.7 8.3 8.8 88 0.9 SSE 11 15 6 8 1013.8 1013.9 0.0
22/12:00pm 10.5 8.6 8.9 90 0.8 SSE 9 15 5 8 1013.8 1013.9 0.0
22/11:39am 10.0 8.4 8.6 91 0.7 S 7 9 4 5 1013.9 1014.0 0.0
22/11:30am 10.0 8.4 8.6 91 0.7 S 7 11 4 6 1013.9 1014.0 0.0
22/11:22am 9.9 8.3 8.7 92 0.6 SSE 7 11 4 6 1013.9 1014.0 0.0
22/11:00am 10.4 9.1 9.3 93 0.5 ESE 6 9 3 5 1014.0 1014.1 0.0
22/10:49am 9.9 8.5 9.0 94 0.4 ESE 6 9 3 5 1013.9 1014.0 0.0
22/10:30am 9.3 7.6 8.4 94 0.4 SE 7 13 4 7 1013.9 1014.0 0.0
22/10:17am 9.6 8.2 8.7 94 0.4 ESE 6 9 3 5 1013.9 1014.0 0.0
22/10:00am 9.4 9.1 8.5 94 0.4 CALM 0 6 0 3 1014.0 1014.1 0.0
22/09:30am 9.2 8.1 8.4 95 0.4 NE 4 7 2 4 1013.9 1014.0 0.0
22/09:19am 8.8 7.6 8.0 95 0.4 NE 4 9 2 5 1013.8 1013.9 0.0
22/09:00am 8.7 6.5 7.9 95 0.4 NNE 9 11 5 6 1013.8 1013.9 16.4
22/08:30am 8.5 6.3 7.7 95 0.4 NNE 9 13 5 7 1013.6 1013.7 16.4
22/08:13am 8.5 6.3 7.7 95 0.4 NNE 9 11 5 6 1013.5 1013.6 16.4
22/08:00am 8.5 6.6 7.7 95 0.4 NE 7 9 4 5 1013.4 1013.5 16.4
22/07:48am 8.4 6.5 7.6 95 0.4 NE 7 9 4 5 1013.3 1013.4 16.4
22/07:30am 8.4 6.5 7.6 95 0.4 NE 7 9 4 5 1013.1 1013.1 16.4
22/07:26am 8.4 6.5 7.6 95 0.4 NE 7 9 4 5 1013.0 1013.0 16.4
22/07:00am 8.2 6.3 7.4 95 0.4 NNE 7 11 4 6 1012.8 1012.8 16.4
22/06:30am 8.2 6.5 7.4 95 0.4 NE 6 9 3 5 1012.6 1012.6 16.4
22/06:00am 8.0 6.2 7.2 95 0.4 NNE 6 7 3 4 1012.5 1012.5 16.4
22/05:30am 8.1 6.3 7.2 94 0.4 NE 6 11 3 6 1012.5 1012.5 16.2
22/05:00am 8.2 6.5 7.4 95 0.4 S 6 7 3 4 1012.2 1012.3 16.0
22/04:53am 8.2 6.3 7.4 95 0.4 SW 7 11 4 6 1012.4 1012.4 15.8
22/04:44am 8.3 6.0 7.5 95 0.4 W 9 13 5 7 1012.5 1012.5 15.4
22/04:30am 8.3 6.4 7.5 95 0.4 NNW 7 9 4 5 1012.6 1012.6 14.4
22/04:25am 8.3 6.4 7.4 94 0.4 N 7 9 4 5 1012.5 1012.5 14.0
22/04:16am 8.3 6.4 7.4 94 0.4 N 7 9 4 5 1012.5 1012.5 13.4
22/04:00am 8.2 7.6 7.3 94 0.4 CALM 0 0 0 0 1012.5 1012.5 13.0
22/03:30am 8.2 6.4 7.3 94 0.4 NNW 6 9 3 5 1012.6 1012.6 12.2
22/03:00am 8.3 6.4 7.4 94 0.4 N 7 13 4 7 1012.6 1012.6 11.8
22/02:30am 8.2 5.9 7.3 94 0.4 N 9 13 5 7 1012.9 1012.9 11.4
22/02:00am 8.2 5.9 7.3 94 0.4 N 9 13 5 7 1012.9 1012.9 11.4
22/01:30am 8.2 6.2 7.3 94 0.4 N 7 11 4 6 1013.0 1013.0 11.4
22/01:00am 8.6 6.7 7.7 94 0.4 NW 7 13 4 7 1012.9 1012.9 11.4
22/12:30am 8.1 7.1 7.2 94 0.4 N 2 6 1 3 1013.0 1013.0 11.4
22/12:00am 8.1 6.1 7.2 94 0.4 N 7 9 4 5 1013.1 1013.1 11.4

Other Formats:

Comma delimited format used in spreadsheet applications
http://www.bom.gov.au/fwo/IDV60801/IDV60801.94828.axf

JavaScript Object Notation format (JSON) in row-major order
http://www.bom.gov.au/fwo/IDV60801/IDV60801.94828.json